createdAt,value
2023-07-04T00:01:12.047Z,22.51
2023-07-04T00:03:42.392Z,22.37
2023-07-04T00:06:13.328Z,22.20
2023-07-04T00:08:40.925Z,22.16
2023-07-04T00:11:09.503Z,22.09
2023-07-04T00:13:38.710Z,22.12
2023-07-04T00:16:08.483Z,22.04
2023-07-04T00:18:38.054Z,22.24
2023-07-04T00:21:13.326Z,22.36
2023-07-04T00:23:43.760Z,22.49
2023-07-04T00:26:10.940Z,22.46
2023-07-04T00:28:42.160Z,22.42
2023-07-04T00:31:11.777Z,22.63
2023-07-04T00:33:40.830Z,22.51
2023-07-04T00:36:14.277Z,22.35
2023-07-04T00:38:42.555Z,22.19
2023-07-04T00:41:11.107Z,22.36
2023-07-04T00:44:21.029Z,22.19
2023-07-04T00:46:55.816Z,22.14
2023-07-04T00:49:44.361Z,22.08
2023-07-04T00:52:18.654Z,22.07
2023-07-04T00:54:54.177Z,22.10
2023-07-04T00:57:33.331Z,22.20
2023-07-04T01:00:18.076Z,22.13
2023-07-04T01:02:51.810Z,21.99
2023-07-04T01:05:36.647Z,21.72
2023-07-04T01:08:11.429Z,21.56
2023-07-04T01:10:43.891Z,21.80
2023-07-04T01:13:30.710Z,21.75
2023-07-04T01:15:57.785Z,21.68
2023-07-04T01:18:24.762Z,21.70
2023-07-04T01:20:53.827Z,21.48
2023-07-04T01:23:39.966Z,21.56
2023-07-04T01:26:27.804Z,21.63
2023-07-04T01:28:55.919Z,21.52
2023-07-04T01:31:26.508Z,21.37
2023-07-04T01:33:59.387Z,21.45
2023-07-04T01:36:32.052Z,21.42
2023-07-04T01:38:59.463Z,21.35
2023-07-04T01:41:27.115Z,21.38
2023-07-04T01:44:00.443Z,21.52
2023-07-04T01:46:27.579Z,21.44
2023-07-04T01:48:54.803Z,21.31
2023-07-04T01:51:34.031Z,21.37
2023-07-04T01:54:02.064Z,21.75
2023-07-04T01:56:31.372Z,21.92
2023-07-04T01:58:58.651Z,22.03
2023-07-04T02:01:26.355Z,22.16
2023-07-04T02:03:54.275Z,22.26
2023-07-04T02:06:21.756Z,22.18
2023-07-04T02:08:49.138Z,21.96
2023-07-04T02:11:16.332Z,21.82
2023-07-04T02:13:46.003Z,22.07
2023-07-04T02:16:13.762Z,22.06
2023-07-04T02:18:40.814Z,22.15
2023-07-04T02:21:08.022Z,22.24
2023-07-04T02:23:36.736Z,22.18
2023-07-04T02:26:03.887Z,21.96
2023-07-04T02:28:30.930Z,21.93
2023-07-04T02:31:00.596Z,21.77
2023-07-04T02:33:28.529Z,21.75
2023-07-04T02:35:55.618Z,21.71
2023-07-04T02:38:23.008Z,21.55
2023-07-04T02:40:52.770Z,21.48
2023-07-04T02:43:20.497Z,21.41
2023-07-04T02:45:47.609Z,21.35
2023-07-04T02:48:15.938Z,21.31
2023-07-04T02:50:43.242Z,21.31
2023-07-04T02:53:10.227Z,21.35
2023-07-04T02:55:37.396Z,21.33
2023-07-04T02:58:05.600Z,21.36
2023-07-04T03:00:35.254Z,21.40
2023-07-04T03:03:02.559Z,21.45
2023-07-04T03:05:29.989Z,21.47
2023-07-04T03:07:56.981Z,21.56
2023-07-04T03:10:24.099Z,21.77
2023-07-04T03:12:51.180Z,21.76
2023-07-04T03:15:18.536Z,21.91
2023-07-04T03:17:50.096Z,21.97
2023-07-04T03:20:17.254Z,22.07
2023-07-04T03:22:45.695Z,22.28
2023-07-04T03:25:13.911Z,22.28
2023-07-04T03:27:41.505Z,22.31
2023-07-04T03:30:10.724Z,22.40
2023-07-04T03:32:39.992Z,22.37
2023-07-04T03:35:08.433Z,22.36
2023-07-04T03:37:37.800Z,22.42
2023-07-04T03:40:10.061Z,22.42
2023-07-04T03:42:40.119Z,22.57
2023-07-04T03:45:08.532Z,22.57
2023-07-04T03:47:36.817Z,22.53
2023-07-04T03:50:05.214Z,22.49
2023-07-04T03:52:33.178Z,22.55
2023-07-04T03:55:00.615Z,22.53
2023-07-04T03:57:29.355Z,22.61
2023-07-04T03:59:56.556Z,22.72
2023-07-04T04:04:50.925Z,22.76
2023-07-04T04:09:47.045Z,22.83
2023-07-04T04:12:14.294Z,22.88
2023-07-04T04:14:41.868Z,22.98
2023-07-04T04:17:09.113Z,23.12
2023-07-04T04:19:36.995Z,23.23
2023-07-04T04:22:04.944Z,23.32
2023-07-04T04:24:32.745Z,23.39
2023-07-04T04:27:04.700Z,23.40
2023-07-04T04:29:31.806Z,23.43
2023-07-04T04:31:59.029Z,23.52
2023-07-04T04:34:26.673Z,23.67
2023-07-04T04:36:53.811Z,23.79
2023-07-04T04:39:20.845Z,23.88
2023-07-04T04:41:47.925Z,24.03
2023-07-04T04:44:15.169Z,24.16
2023-07-04T04:46:50.399Z,24.27
2023-07-04T04:49:22.781Z,24.40
2023-07-04T04:51:53.351Z,24.52
2023-07-04T04:54:20.624Z,24.57
2023-07-04T04:56:47.741Z,24.68
2023-07-04T04:59:14.959Z,24.68
2023-07-04T05:01:42.656Z,24.81
2023-07-04T05:04:10.082Z,24.86
2023-07-04T05:06:38.097Z,24.89
2023-07-04T05:09:07.307Z,24.99
2023-07-04T05:11:34.734Z,25.10
2023-07-04T05:14:02.702Z,25.14
2023-07-04T05:16:30.411Z,25.05
2023-07-04T05:18:58.165Z,25.14
2023-07-04T05:21:26.034Z,25.21
2023-07-04T05:23:54.161Z,25.29
2023-07-04T05:26:26.308Z,25.38
2023-07-04T05:28:55.392Z,25.43
2023-07-04T05:31:28.088Z,25.48
2023-07-04T05:33:56.882Z,25.53
2023-07-04T05:36:26.409Z,25.61
2023-07-04T05:38:55.963Z,25.41
2023-07-04T05:41:28.817Z,25.56
2023-07-04T05:43:57.709Z,25.64
2023-07-04T05:46:25.506Z,25.78
2023-07-04T05:48:53.034Z,25.85
2023-07-04T05:51:21.490Z,25.90
2023-07-04T05:53:50.880Z,25.95
2023-07-04T05:56:29.947Z,26.00
2023-07-04T05:58:59.831Z,26.12
2023-07-04T06:01:29.576Z,26.22
2023-07-04T06:03:58.139Z,26.34
2023-07-04T06:06:31.762Z,26.41
2023-07-04T06:09:00.510Z,26.55
2023-07-04T06:11:31.704Z,26.65
2023-07-04T06:14:04.036Z,26.72
2023-07-04T06:16:31.825Z,26.87
2023-07-04T06:19:00.680Z,26.99
2023-07-04T06:21:42.420Z,27.15
2023-07-04T06:24:11.892Z,27.17
2023-07-04T06:26:39.142Z,27.32
2023-07-04T06:29:06.780Z,27.39
2023-07-04T06:31:34.538Z,27.46
2023-07-04T06:34:02.121Z,27.47
2023-07-04T06:36:30.198Z,27.56
2023-07-04T06:39:01.334Z,27.63
2023-07-04T06:41:28.806Z,27.71
2023-07-04T06:43:55.971Z,27.81
2023-07-04T06:46:23.668Z,27.89
2023-07-04T06:48:52.273Z,28.02
2023-07-04T06:51:20.897Z,28.13
2023-07-04T06:53:48.824Z,28.21
2023-07-04T06:56:22.260Z,28.20
2023-07-04T06:58:54.793Z,28.25
2023-07-04T07:01:24.729Z,28.39
2023-07-04T07:03:52.982Z,28.50
2023-07-04T07:06:22.143Z,28.47
2023-07-04T07:08:49.296Z,28.47
2023-07-04T07:11:19.095Z,28.68
2023-07-04T07:13:48.132Z,28.92
2023-07-04T07:16:25.903Z,28.95
2023-07-04T07:18:55.003Z,28.97
2023-07-04T07:21:26.895Z,29.10
2023-07-04T07:23:57.890Z,29.26
2023-07-04T07:26:27.810Z,29.33
2023-07-04T07:28:56.294Z,29.44
2023-07-04T07:31:32.758Z,29.44
2023-07-04T07:34:01.877Z,29.55
2023-07-04T07:36:32.209Z,29.66
2023-07-04T07:39:04.257Z,29.91
2023-07-04T07:41:34.505Z,30.04
2023-07-04T07:44:02.209Z,30.07
2023-07-04T07:46:29.571Z,30.14
2023-07-04T07:48:57.370Z,29.61
2023-07-04T07:51:29.131Z,30.05
2023-07-04T07:53:57.548Z,30.03
2023-07-04T07:56:27.477Z,30.05
2023-07-04T07:58:54.571Z,30.02
2023-07-04T08:01:22.585Z,29.92
2023-07-04T08:03:51.436Z,30.07
2023-07-04T08:06:34.153Z,30.18
2023-07-04T08:09:03.026Z,30.25
2023-07-04T08:11:31.258Z,30.10
2023-07-04T08:13:59.742Z,30.01
2023-07-04T08:16:48.808Z,30.09
2023-07-04T08:19:18.450Z,30.16
2023-07-04T08:21:46.747Z,30.27
2023-07-04T08:24:16.279Z,30.55
2023-07-04T08:26:47.267Z,30.67
2023-07-04T08:29:15.400Z,30.92
2023-07-04T08:31:43.034Z,30.68
2023-07-04T08:34:13.419Z,30.73
2023-07-04T08:36:42.485Z,30.82
2023-07-04T08:39:10.768Z,30.94
2023-07-04T08:41:58.927Z,30.91
2023-07-04T08:44:42.993Z,30.99
2023-07-04T08:47:13.294Z,31.12
2023-07-04T08:49:51.581Z,31.28
2023-07-04T08:52:42.820Z,31.50
2023-07-04T08:55:13.774Z,31.57
2023-07-04T08:57:46.919Z,31.39
2023-07-04T09:00:25.440Z,31.54
2023-07-04T09:02:58.695Z,31.74
2023-07-04T09:05:34.672Z,31.86
2023-07-04T09:08:17.772Z,31.83
2023-07-04T09:10:51.138Z,31.93
2023-07-04T09:13:32.438Z,32.07
2023-07-04T09:16:03.391Z,32.22
2023-07-04T09:18:50.401Z,32.29
2023-07-04T09:21:20.347Z,32.37
2023-07-04T09:23:50.405Z,32.58
2023-07-04T09:26:32.087Z,32.73
2023-07-04T09:28:59.670Z,32.71
2023-07-04T09:31:32.510Z,33.00
2023-07-04T09:34:06.782Z,32.80
2023-07-04T09:36:38.368Z,32.59
2023-07-04T09:39:06.206Z,32.72
2023-07-04T09:41:40.377Z,33.01
2023-07-04T09:44:27.894Z,33.33
2023-07-04T09:46:58.086Z,33.56
2023-07-04T09:49:36.540Z,33.54
2023-07-04T09:52:23.392Z,33.40
2023-07-04T09:55:11.820Z,33.57
2023-07-04T09:57:40.273Z,33.69
2023-07-04T10:00:17.168Z,33.69
2023-07-04T10:02:45.572Z,33.91
2023-07-04T10:05:33.013Z,34.04
2023-07-04T10:08:12.119Z,33.93
2023-07-04T10:10:50.041Z,34.22
2023-07-04T10:13:20.535Z,34.30
2023-07-04T10:15:48.315Z,34.49
2023-07-04T10:18:29.172Z,34.54
2023-07-04T10:20:58.877Z,34.52
2023-07-04T10:23:27.879Z,34.55
2023-07-04T10:25:58.178Z,34.82
2023-07-04T10:28:28.838Z,34.77
2023-07-04T10:31:01.392Z,34.83
2023-07-04T10:33:37.821Z,34.82
2023-07-04T10:36:09.510Z,34.91
2023-07-04T10:38:47.506Z,34.88
2023-07-04T10:41:25.274Z,34.83
2023-07-04T10:44:00.706Z,34.62
2023-07-04T10:46:43.800Z,34.59
2023-07-04T10:49:17.184Z,34.94
2023-07-04T10:51:46.168Z,34.97
2023-07-04T10:54:14.928Z,35.01
2023-07-04T10:56:47.368Z,35.09
2023-07-04T10:59:24.679Z,35.02
2023-07-04T11:01:56.979Z,35.36
2023-07-04T11:04:34.799Z,35.42
2023-07-04T11:07:14.497Z,35.28
2023-07-04T11:09:43.001Z,35.10
2023-07-04T11:12:17.165Z,34.83
2023-07-04T11:14:46.691Z,35.18
2023-07-04T11:17:22.963Z,35.39
2023-07-04T11:19:57.154Z,35.39
2023-07-04T11:22:58.441Z,35.48
2023-07-04T11:25:54.408Z,35.54
2023-07-04T11:28:33.728Z,35.84
2023-07-04T11:31:13.180Z,35.97
2023-07-04T11:33:56.376Z,36.01
2023-07-04T11:36:30.397Z,36.07
2023-07-04T11:39:07.303Z,35.88
2023-07-04T11:41:39.460Z,36.06
2023-07-04T11:44:31.809Z,36.02
2023-07-04T11:47:03.545Z,36.12
2023-07-04T11:49:33.770Z,36.05
2023-07-04T11:52:26.447Z,35.95
2023-07-04T11:55:18.357Z,36.44
2023-07-04T11:58:00.620Z,36.83
2023-07-04T12:00:31.497Z,36.67
2023-07-04T12:03:14.700Z,37.06
2023-07-04T12:05:42.273Z,37.20
2023-07-04T12:08:15.387Z,37.36
2023-07-04T12:10:43.242Z,37.67
2023-07-04T12:13:10.644Z,37.79
2023-07-04T12:15:41.028Z,38.18
2023-07-04T12:18:19.520Z,38.28
2023-07-04T12:20:47.198Z,38.06
2023-07-04T12:23:16.556Z,38.21
2023-07-04T12:25:45.985Z,38.54
2023-07-04T12:28:15.620Z,38.27
2023-07-04T12:33:27.352Z,38.31
2023-07-04T12:36:01.000Z,38.39
2023-07-04T12:38:30.854Z,37.89
2023-07-04T12:40:59.196Z,38.19
2023-07-04T12:51:22.656Z,37.90
2023-07-04T12:53:50.938Z,38.52
2023-07-04T12:56:18.560Z,38.80
2023-07-04T12:58:48.434Z,38.62
2023-07-04T13:01:30.411Z,38.71
2023-07-04T13:04:01.038Z,38.81
2023-07-04T13:06:31.771Z,38.95
2023-07-04T13:08:59.827Z,38.85
2023-07-04T13:11:28.574Z,38.64
2023-07-04T13:14:12.022Z,38.96
2023-07-04T13:16:41.458Z,39.07
2023-07-04T13:19:11.673Z,39.22
2023-07-04T13:21:42.519Z,38.90
2023-07-04T13:27:17.657Z,39.28
2023-07-04T13:30:22.024Z,39.07
2023-07-04T13:35:37.062Z,39.39
2023-07-04T13:40:40.478Z,39.17
2023-07-04T13:45:45.644Z,39.19
2023-07-04T13:48:12.951Z,39.02
2023-07-04T13:50:40.628Z,39.13
2023-07-04T13:55:39.993Z,39.18
2023-07-04T13:58:07.489Z,38.50
2023-07-04T14:00:54.076Z,38.51
2023-07-04T14:05:57.535Z,37.82
2023-07-04T14:08:28.504Z,37.55
2023-07-04T14:11:02.731Z,36.78
2023-07-04T14:13:32.859Z,36.48
2023-07-04T14:21:10.197Z,35.81
2023-07-04T14:23:38.134Z,35.51
2023-07-04T14:26:11.874Z,35.47
2023-07-04T14:28:39.160Z,35.25
2023-07-04T14:31:06.946Z,35.19
2023-07-04T14:33:34.316Z,35.15
2023-07-04T14:36:04.963Z,35.15
2023-07-04T14:38:33.602Z,35.01
2023-07-04T14:43:37.415Z,34.80
2023-07-04T14:46:08.152Z,34.61
2023-07-04T14:48:37.233Z,34.62
2023-07-04T14:51:09.156Z,34.43
2023-07-04T14:53:37.630Z,34.34
2023-07-04T14:56:08.421Z,34.10
2023-07-04T14:58:35.852Z,33.79
2023-07-04T15:01:05.047Z,33.85
2023-07-04T15:03:34.949Z,33.54
2023-07-04T15:06:05.007Z,33.57
2023-07-04T15:08:33.854Z,33.59
2023-07-04T15:11:06.082Z,33.52
2023-07-04T15:13:34.882Z,33.42
2023-07-04T15:16:07.487Z,33.24
2023-07-04T15:18:38.539Z,33.29
2023-07-04T15:21:08.309Z,33.25
2023-07-04T15:23:36.276Z,33.15
2023-07-04T15:26:20.513Z,33.07
2023-07-04T15:28:52.775Z,33.00
2023-07-04T15:31:20.323Z,33.07
2023-07-04T15:33:47.580Z,32.98
2023-07-04T15:36:14.681Z,32.91
2023-07-04T15:38:43.054Z,32.74
2023-07-04T15:41:11.004Z,32.77
2023-07-04T15:43:38.929Z,32.72
2023-07-04T15:46:08.835Z,32.71
2023-07-04T15:48:38.771Z,32.68
2023-07-04T15:51:08.053Z,32.70
2023-07-04T15:53:35.648Z,32.53
2023-07-04T15:56:20.498Z,32.51
2023-07-04T15:58:48.340Z,32.48
2023-07-04T16:01:15.466Z,32.38
2023-07-04T16:03:43.539Z,32.24
2023-07-04T16:06:11.713Z,32.17
2023-07-04T16:08:40.888Z,32.11
2023-07-04T16:11:11.737Z,32.01
2023-07-04T16:13:40.697Z,31.96
2023-07-04T16:16:09.508Z,31.87
2023-07-04T16:18:37.001Z,31.79
2023-07-04T16:21:04.820Z,31.72
2023-07-04T16:23:31.836Z,31.63
2023-07-04T16:26:00.583Z,31.53
2023-07-04T16:28:28.095Z,31.56
2023-07-04T16:31:02.853Z,31.54
2023-07-04T16:33:30.957Z,31.55
2023-07-04T16:35:58.188Z,31.43
2023-07-04T16:38:26.659Z,31.27
2023-07-04T16:40:55.421Z,31.15
2023-07-04T16:43:23.612Z,31.17
2023-07-04T16:45:51.612Z,31.09
2023-07-04T16:48:18.932Z,31.11
2023-07-04T16:50:46.285Z,31.06
2023-07-04T16:53:13.460Z,31.00
2023-07-04T16:55:40.588Z,30.96
2023-07-04T16:58:07.653Z,30.90
2023-07-04T17:00:36.011Z,30.89
2023-07-04T17:03:03.950Z,30.84
2023-07-04T17:05:32.044Z,30.83
2023-07-04T17:08:00.368Z,30.67
2023-07-04T17:10:27.974Z,30.62
2023-07-04T17:12:57.864Z,30.65
2023-07-04T17:15:24.979Z,30.58
2023-07-04T17:17:52.196Z,30.61
2023-07-04T17:20:21.102Z,30.63
2023-07-04T17:22:48.482Z,30.63
2023-07-04T17:25:15.888Z,30.52
2023-07-04T17:27:43.235Z,30.55
2023-07-04T17:30:11.253Z,30.52
2023-07-04T17:32:38.605Z,30.47
2023-07-04T17:35:07.012Z,30.38
2023-07-04T17:37:34.485Z,30.38
2023-07-04T17:40:02.420Z,30.30
2023-07-04T17:42:30.737Z,30.32
2023-07-04T17:44:59.368Z,30.31
2023-07-04T17:47:29.965Z,30.23
2023-07-04T17:49:57.613Z,30.17
2023-07-04T17:52:25.894Z,30.13
2023-07-04T17:54:53.049Z,30.13
2023-07-04T17:57:27.907Z,30.14
2023-07-04T17:59:56.579Z,30.11
2023-07-04T18:02:24.810Z,30.05
2023-07-04T18:04:56.314Z,30.01
2023-07-04T18:07:24.864Z,29.99
2023-07-04T18:09:53.555Z,29.95
2023-07-04T18:12:25.841Z,29.91
2023-07-04T18:14:56.553Z,29.86
2023-07-04T18:17:23.814Z,29.85
2023-07-04T18:19:57.925Z,29.82
2023-07-04T18:22:26.767Z,29.85
2023-07-04T18:24:55.217Z,29.57
2023-07-04T18:27:22.873Z,29.23
2023-07-04T18:29:55.746Z,29.05
2023-07-04T18:32:23.773Z,29.04
2023-07-04T18:34:55.387Z,28.90
2023-07-04T18:37:24.803Z,28.86
2023-07-04T18:39:52.018Z,28.87
2023-07-04T18:42:19.125Z,28.69
2023-07-04T18:44:46.164Z,28.75
2023-07-04T18:47:13.735Z,28.77
2023-07-04T18:49:40.795Z,28.86
2023-07-04T18:52:08.181Z,28.93
2023-07-04T18:54:35.221Z,28.79
2023-07-04T18:57:02.409Z,28.70
2023-07-04T18:59:30.563Z,28.69
2023-07-04T19:01:57.727Z,28.66
2023-07-04T19:04:25.208Z,28.65
2023-07-04T19:06:52.625Z,28.65
2023-07-04T19:09:19.702Z,28.55
2023-07-04T19:11:48.125Z,28.48
2023-07-04T19:14:20.897Z,28.33
2023-07-04T19:16:57.515Z,28.29
2023-07-04T19:19:34.632Z,28.31
2023-07-04T19:22:08.397Z,28.28
2023-07-04T19:24:39.322Z,28.33
2023-07-04T19:27:11.118Z,28.23
2023-07-04T19:29:39.181Z,28.37
2023-07-04T19:32:07.725Z,28.28
2023-07-04T19:34:36.369Z,28.20
2023-07-04T19:37:04.659Z,28.19
2023-07-04T19:39:36.298Z,28.22
2023-07-04T19:42:04.377Z,28.14
2023-07-04T19:44:33.874Z,27.97
2023-07-04T19:47:00.982Z,27.91
2023-07-04T19:49:34.431Z,27.90
2023-07-04T19:52:05.445Z,27.85
2023-07-04T19:54:36.151Z,27.72
2023-07-04T19:57:03.185Z,27.64
2023-07-04T19:59:30.181Z,27.58
2023-07-04T20:01:57.207Z,27.59
2023-07-04T20:04:24.346Z,27.60
2023-07-04T20:06:51.454Z,27.50
2023-07-04T20:09:31.882Z,27.46
2023-07-04T20:12:04.662Z,27.51
2023-07-04T20:14:33.130Z,27.31
2023-07-04T20:17:10.818Z,27.37
2023-07-04T20:19:48.904Z,27.37
2023-07-04T20:22:17.018Z,27.27
2023-07-04T20:24:56.505Z,27.31
2023-07-04T20:27:38.431Z,27.11
2023-07-04T20:30:14.978Z,27.29
2023-07-04T20:32:53.719Z,27.30
2023-07-04T20:35:22.386Z,27.29
2023-07-04T20:37:49.758Z,27.07
2023-07-04T20:40:16.997Z,26.86
2023-07-04T20:42:48.718Z,26.81
2023-07-04T20:45:16.786Z,26.78
2023-07-04T20:47:44.109Z,26.75
2023-07-04T20:50:12.182Z,26.85
2023-07-04T20:52:41.682Z,26.76
2023-07-04T20:55:10.776Z,26.87
2023-07-04T20:57:38.545Z,26.84
2023-07-04T21:00:16.477Z,26.95
2023-07-04T21:02:44.804Z,26.89
2023-07-04T21:05:12.584Z,26.80
2023-07-04T21:07:41.417Z,26.75
2023-07-04T21:10:10.944Z,26.58
2023-07-04T21:12:38.760Z,26.27
2023-07-04T21:15:07.897Z,26.31
2023-07-04T21:17:40.251Z,26.10
2023-07-04T21:20:09.833Z,25.99
2023-07-04T21:22:38.304Z,25.87
2023-07-04T21:25:06.848Z,25.77
2023-07-04T21:27:34.375Z,25.72
2023-07-04T21:30:02.996Z,25.69
2023-07-04T21:32:31.203Z,25.69
2023-07-04T21:34:58.288Z,25.99
2023-07-04T21:37:26.253Z,26.06
2023-07-04T21:39:53.435Z,25.80
2023-07-04T21:42:21.188Z,25.79
2023-07-04T21:44:54.277Z,25.95
2023-07-04T21:47:22.034Z,26.05
2023-07-04T21:49:50.243Z,26.04
2023-07-04T21:52:17.480Z,26.07
2023-07-04T21:54:45.553Z,26.11
2023-07-04T21:57:12.977Z,26.10
2023-07-04T21:59:40.528Z,26.17
2023-07-04T22:02:07.599Z,26.23
2023-07-04T22:04:36.670Z,26.26
2023-07-04T22:07:04.150Z,26.16
2023-07-04T22:09:31.277Z,26.27
2023-07-04T22:11:59.876Z,26.27
2023-07-04T22:14:36.307Z,26.20
2023-07-04T22:17:05.982Z,26.23
2023-07-04T22:19:33.507Z,26.26
2023-07-04T22:22:00.685Z,26.27
2023-07-04T22:24:29.596Z,26.22
2023-07-04T22:26:56.679Z,26.25
2023-07-04T22:29:23.755Z,26.17
2023-07-04T22:31:51.392Z,26.15
2023-07-04T22:34:18.432Z,25.97
2023-07-04T22:36:45.444Z,25.93
2023-07-04T22:39:12.552Z,25.86
2023-07-04T22:41:41.426Z,25.98
2023-07-04T22:44:08.566Z,25.80
2023-07-04T22:46:35.776Z,25.76
2023-07-04T22:49:02.852Z,25.66
2023-07-04T22:51:30.331Z,25.70
2023-07-04T22:53:58.437Z,25.59
2023-07-04T22:56:25.602Z,25.70
2023-07-04T22:58:53.331Z,25.76
2023-07-04T23:01:23.808Z,25.79
2023-07-04T23:03:51.135Z,25.78
2023-07-04T23:06:19.164Z,25.78
2023-07-04T23:08:48.304Z,25.71
2023-07-04T23:11:18.167Z,25.68
2023-07-04T23:13:47.482Z,25.70
2023-07-04T23:16:20.409Z,25.75
2023-07-04T23:18:50.282Z,25.73
2023-07-04T23:21:18.715Z,25.66
2023-07-04T23:23:47.752Z,25.58
2023-07-04T23:26:28.189Z,25.57
2023-07-04T23:28:55.832Z,25.62
2023-07-04T23:31:23.506Z,25.54
2023-07-04T23:33:51.232Z,25.56
2023-07-04T23:36:20.797Z,25.55
2023-07-04T23:38:49.734Z,25.55
2023-07-04T23:41:17.616Z,25.51
2023-07-04T23:43:46.935Z,25.52
2023-07-04T23:46:14.695Z,25.48
2023-07-04T23:48:42.052Z,25.41
2023-07-04T23:51:10.017Z,25.42
2023-07-04T23:53:37.530Z,25.42
2023-07-04T23:56:04.815Z,25.40
2023-07-04T23:58:32.031Z,25.36
